Time;durP1;ratioP1;P1;durP2;ratioP2;P2;SDS_P1;SDS_P2;PMS_P1;PMS_P2;Temp;Humidity;BMP_temperature;BMP_pressure;BME280_temperature;BME280_humidity;BME280_pressure;Samples;Min_cycle;Max_cycle;Signal;HPM_P1;HPM_P2
2021/06/18 00:00:26;;;;;;;0.60;0.57;;;;;;;23.53;95.20;99842.66;4992016;28;20934;-55
2021/06/18 00:02:54;;;;;;;1.17;1.17;;;;;;;23.61;94.87;99851.03;4992485;28;20453;-55
2021/06/18 00:05:21;;;;;;;1.70;1.00;;;;;;;23.78;93.67;99847.63;4992058;28;20483;-54
2021/06/18 00:07:48;;;;;;;1.33;1.30;;;;;;;23.97;92.89;99844.09;4991932;28;20512;-54
2021/06/18 00:10:18;;;;;;;2.40;1.07;;;;;;;23.94;92.15;99852.53;4991875;28;20895;-55
2021/06/18 00:12:45;;;;;;;9.30;1.70;;;;;;;23.44;95.70;99847.09;4991237;28;20497;-55
2021/06/18 00:15:12;;;;;;;1.37;0.63;;;;;;;23.30;95.88;99853.72;4991891;28;20478;-55
2021/06/18 00:17:39;;;;;;;0.60;0.50;;;;;;;23.19;96.87;99852.97;4991822;28;20955;-54
2021/06/18 00:20:08;;;;;;;0.60;0.50;;;;;;;23.20;97.45;99852.81;4991075;28;20862;-54
2021/06/18 00:22:37;;;;;;;1.30;1.10;;;;;;;23.10;97.76;99853.75;4992221;28;20454;-54
2021/06/18 00:25:06;;;;;;;0.50;0.40;;;;;;;23.18;97.76;99848.53;4991786;28;20469;-54
2021/06/18 00:27:33;;;;;;;1.13;1.13;;;;;;;23.31;96.81;99852.75;4991911;28;20861;-54
2021/06/18 00:30:00;;;;;;;1.63;1.50;;;;;;;23.26;96.45;99849.56;4991972;28;20450;-54
2021/06/18 00:32:26;;;;;;;2.97;2.10;;;;;;;22.38;100.00;99857.22;4991257;28;20941;-54
2021/06/18 00:34:53;;;;;;;1.10;1.10;;;;;;;22.62;100.00;99859.72;4991966;28;20895;-54
2021/06/18 00:37:20;;;;;;;0.60;0.40;;;;;;;22.77;100.00;99851.13;4990606;28;20887;-54
2021/06/18 00:39:47;;;;;;;0.80;0.50;;;;;;;23.00;99.41;99861.81;4991746;28;20564;-55
2021/06/18 00:42:13;;;;;;;0.50;0.30;;;;;;;22.86;100.00;99859.47;4990322;28;20445;-55
2021/06/18 00:44:40;;;;;;;0.50;0.20;;;;;;;22.93;100.00;99856.09;4993600;28;20488;-54
2021/06/18 00:47:14;;;;;;;1.33;1.23;;;;;;;22.67;100.00;99858.31;4995235;28;20445;-54
2021/06/18 00:49:42;;;;;;;0.93;0.60;;;;;;;22.60;100.00;99856.25;4995108;28;20445;-54
2021/06/18 00:52:09;;;;;;;0.50;0.30;;;;;;;22.54;100.00;99856.78;4994539;28;20516;-54
2021/06/18 00:54:38;;;;;;;0.50;0.30;;;;;;;22.25;100.00;99851.13;4994902;28;20457;-54
2021/06/18 00:57:05;;;;;;;0.60;0.47;;;;;;;22.34;100.00;99847.63;4995108;28;20457;-53
2021/06/18 00:59:32;;;;;;;0.50;0.30;;;;;;;22.69;100.00;99842.78;4995061;28;20484;-54
2021/06/18 01:01:59;;;;;;;1.47;1.20;;;;;;;22.40;100.00;99839.00;4995237;28;20453;-54
2021/06/18 01:04:28;;;;;;;0.50;0.30;;;;;;;22.12;100.00;99841.31;4994993;28;21377;-54
2021/06/18 01:07:17;;;;;;;0.50;0.30;;;;;;;22.23;100.00;99837.72;4994332;28;20469;-54
2021/06/18 01:09:59;;;;;;;0.50;0.30;;;;;;;22.40;100.00;99837.13;5009640;28;20935;-55
2021/06/18 01:12:29;;;;;;;0.50;0.30;;;;;;;22.62;100.00;99829.91;4994944;28;20457;-55
2021/06/18 01:15:14;;;;;;;8.40;1.07;;;;;;;22.59;100.00;99846.41;4993885;28;20473;-54
2021/06/18 01:17:50;;;;;;;0.80;0.57;;;;;;;22.61;100.00;99856.09;4994604;28;20827;-54
2021/06/18 01:20:43;;;;;;;2.50;1.73;;;;;;;22.68;100.00;99854.59;4994623;28;20551;-55
2021/06/18 01:23:27;;;;;;;1.63;1.53;;;;;;;22.56;100.00;99858.34;4960276;28;20829;-55
2021/06/18 01:26:06;;;;;;;0.50;0.40;;;;;;;22.60;100.00;99856.25;4993661;28;20489;-54
2021/06/18 01:28:39;;;;;;;0.97;0.97;;;;;;;22.30;100.00;99855.16;4994549;28;20519;-55
2021/06/18 01:31:08;;;;;;;1.03;0.57;;;;;;;22.36;100.00;99860.06;4981710;28;20939;-54
2021/06/18 01:33:36;;;;;;;0.50;0.40;;;;;;;22.34;100.00;99872.88;4994208;28;21046;-54
2021/06/18 01:36:05;;;;;;;1.27;1.27;;;;;;;22.26;100.00;99872.66;4994358;28;20561;-54
2021/06/18 01:38:39;;;;;;;0.87;0.87;;;;;;;22.26;100.00;99875.34;4994200;28;20458;-55
2021/06/18 01:41:09;;;;;;;0.50;0.40;;;;;;;22.23;100.00;99864.78;4993278;28;20460;-54
2021/06/18 01:43:37;;;;;;;0.50;0.40;;;;;;;22.72;100.00;99866.88;4994089;28;20454;-55
2021/06/18 01:46:06;;;;;;;0.60;0.40;;;;;;;22.38;100.00;99862.63;4993218;28;20493;-55
2021/06/18 01:48:34;;;;;;;0.50;0.20;;;;;;;22.36;100.00;99868.19;4994167;28;20452;-55
2021/06/18 01:51:01;;;;;;;0.50;0.20;;;;;;;22.33;100.00;99865.72;4994062;28;20461;-54
2021/06/18 01:53:30;;;;;;;0.60;0.33;;;;;;;22.00;100.00;99847.72;4993921;28;20454;-54
2021/06/18 01:55:58;;;;;;;2.10;2.00;;;;;;;21.58;100.00;99842.16;4993041;28;20468;-55
2021/06/18 01:58:26;;;;;;;0.70;0.50;;;;;;;21.66;100.00;99840.66;4994169;28;20512;-54
2021/06/18 02:00:53;;;;;;;0.70;0.70;;;;;;;21.64;100.00;99837.22;4993765;28;20555;-54
2021/06/18 02:03:29;;;;;;;0.50;0.40;;;;;;;21.66;100.00;99832.56;4993843;28;20454;-55
2021/06/18 02:06:00;;;;;;;0.50;0.23;;;;;;;21.86;100.00;99826.34;4992984;28;21104;-54
2021/06/18 02:08:27;;;;;;;0.50;0.40;;;;;;;21.82;100.00;99827.59;4993845;28;20453;-54
2021/06/18 02:10:56;;;;;;;0.50;0.30;;;;;;;21.74;100.00;99822.81;4993527;28;20497;-54
2021/06/18 02:13:28;;;;;;;0.80;0.70;;;;;;;21.80;100.00;99821.47;4993558;28;20458;-54
2021/06/18 02:15:57;;;;;;;1.03;0.93;;;;;;;21.82;100.00;99824.91;4993147;28;20473;-55
2021/06/18 02:18:26;;;;;;;0.50;0.30;;;;;;;21.63;100.00;99828.22;4993046;28;20460;-53
2021/06/18 02:20:55;;;;;;;1.57;1.20;;;;;;;21.07;100.00;99813.84;4992598;28;20544;-54
2021/06/18 02:23:28;;;;;;;0.60;0.50;;;;;;;21.33;100.00;99817.22;4993064;28;20516;-54
2021/06/18 02:25:59;;;;;;;0.60;0.60;;;;;;;21.50;100.00;99822.09;4991474;28;20473;-54
2021/06/18 02:28:25;;;;;;;0.70;0.70;;;;;;;21.66;100.00;99816.31;4992128;28;20910;-54
2021/06/18 02:30:53;;;;;;;0.50;0.30;;;;;;;21.62;100.00;99814.84;4993680;28;20504;-55
2021/06/18 02:33:20;;;;;;;0.83;0.83;;;;;;;21.63;100.00;99825.53;4993586;28;20485;-54
2021/06/18 02:35:49;;;;;;;0.50;0.20;;;;;;;21.49;100.00;99814.97;4993384;28;21053;-54
2021/06/18 02:38:16;;;;;;;0.50;0.30;;;;;;;21.66;100.00;99814.47;4999912;28;20460;-55
2021/06/18 02:40:45;;;;;;;0.50;0.30;;;;;;;21.49;100.00;99820.38;4993550;28;20497;-54
2021/06/18 02:43:12;;;;;;;0.60;0.40;;;;;;;21.48;100.00;99821.38;4992967;28;21028;-54
2021/06/18 02:45:39;;;;;;;0.77;0.77;;;;;;;21.50;100.00;99825.66;4993207;23;20508;-81
2021/06/18 02:48:17;;;;;;;0.60;0.57;;;;;;;21.59;100.00;99826.78;5058660;28;20466;-80
2021/06/18 02:50:50;;;;;;;0.73;0.73;;;;;;;21.55;100.00;99838.84;5041476;28;20430;-81
2021/06/18 02:53:17;;;;;;;0.50;0.20;;;;;;;21.38;100.00;99840.22;5060479;28;20443;-80
2021/06/18 02:55:54;;;;;;;1.07;1.07;;;;;;;21.28;100.00;99845.47;5059549;28;20470;-80
2021/06/18 02:58:24;;;;;;;0.50;0.20;;;;;;;21.15;100.00;99844.72;5045754;28;20876;-81
2021/06/18 03:00:55;;;;;;;9.80;2.77;;;;;;;21.26;100.00;99841.19;5043253;28;20487;-80
2021/06/18 03:03:27;;;;;;;1.50;1.43;;;;;;;21.29;100.00;99863.44;5030657;28;20452;-80
2021/06/18 03:05:58;;;;;;;0.50;0.20;;;;;;;21.28;100.00;99887.88;5040042;28;20464;-80
2021/06/18 03:08:30;;;;;;;0.50;0.30;;;;;;;21.31;100.00;99878.66;5042990;28;20447;-81
2021/06/18 03:10:58;;;;;;;0.50;0.30;;;;;;;21.48;100.00;99875.47;5027345;28;20460;-81
2021/06/18 03:13:30;;;;;;;27.67;3.40;;;;;;;21.29;100.00;99879.66;5041635;28;20456;-80
2021/06/18 03:15:57;;;;;;;0.50;0.30;;;;;;;21.25;100.00;99889.00;5042415;28;20468;-80
2021/06/18 03:18:25;;;;;;;0.60;0.60;;;;;;;21.12;100.00;99899.03;5042221;28;20452;-81
2021/06/18 03:20:53;;;;;;;0.50;0.20;;;;;;;20.94;100.00;99895.91;5044339;28;20483;-81
2021/06/18 03:23:21;;;;;;;0.50;0.30;;;;;;;20.91;100.00;99898.84;5042269;28;20455;-81
2021/06/18 03:25:51;;;;;;;3.00;0.97;;;;;;;20.87;100.00;99904.63;5034319;28;20578;-80
2021/06/18 03:28:20;;;;;;;0.83;0.83;;;;;;;20.52;100.00;99883.00;5040398;28;20440;-80
2021/06/18 03:30:48;;;;;;;0.83;0.80;;;;;;;20.31;100.00;99894.44;5043135;28;20459;-80
2021/06/18 03:33:16;;;;;;;0.50;0.30;;;;;;;20.76;100.00;99900.03;5052286;28;20463;-81
2021/06/18 03:35:48;;;;;;;0.77;0.77;;;;;;;20.95;100.00;99896.75;5042776;28;20531;-80
2021/06/18 03:38:17;;;;;;;1.13;0.97;;;;;;;20.94;100.00;99895.91;5036041;28;20440;-80
2021/06/18 03:40:45;;;;;;;0.60;0.40;;;;;;;20.99;100.00;99877.50;5047285;28;20495;-80
2021/06/18 03:43:13;;;;;;;0.50;0.20;;;;;;;21.27;100.00;99886.16;5052848;28;20498;-80
2021/06/18 03:45:43;;;;;;;1.17;1.17;;;;;;;21.33;100.00;99880.25;5051831;28;20498;-80
2021/06/18 03:48:15;;;;;;;0.77;0.77;;;;;;;20.78;100.00;99868.34;5046107;28;20447;-81
2021/06/18 03:50:43;;;;;;;0.60;0.47;;;;;;;20.78;100.00;99892.66;5038122;28;20440;-80
2021/06/18 03:53:10;;;;;;;0.50;0.43;;;;;;;21.03;100.00;99894.31;5038167;28;20490;-80
2021/06/18 03:55:38;;;;;;;2.60;1.57;;;;;;;21.27;100.00;99889.72;5023973;28;20475;-81
2021/06/18 03:58:06;;;;;;;2.60;1.07;;;;;;;21.31;100.00;99875.97;5032311;28;20463;-81
2021/06/18 04:00:35;;;;;;;2.73;0.83;;;;;;;21.55;100.00;99895.63;5037465;28;20491;-82
2021/06/18 04:03:04;;;;;;;0.50;0.23;;;;;;;21.62;100.00;99898.69;5035390;28;20514;-81
2021/06/18 04:05:32;;;;;;;0.50;0.30;;;;;;;21.61;100.00;99891.56;5032713;28;20463;-80
2021/06/18 04:08:00;;;;;;;0.50;0.33;;;;;;;21.45;100.00;99900.06;5037667;28;20866;-81
2021/06/18 04:10:27;;;;;;;0.50;0.30;;;;;;;21.91;100.00;99891.78;5024055;28;20937;-80
2021/06/18 04:12:54;;;;;;;0.60;0.40;;;;;;;21.71;100.00;99890.72;5029603;28;20483;-81
2021/06/18 04:15:23;;;;;;;0.50;0.40;;;;;;;21.45;100.00;99897.34;5023848;28;20479;-81
2021/06/18 04:17:51;;;;;;;1.43;1.33;;;;;;;21.56;100.00;99882.00;5023634;28;21020;-80
2021/06/18 04:20:22;;;;;;;4.93;1.17;;;;;;;21.71;100.00;99889.84;5028050;28;20471;-81
2021/06/18 04:22:51;;;;;;;0.87;0.87;;;;;;;21.76;100.00;99893.88;5038321;28;20448;-81
2021/06/18 04:25:18;;;;;;;0.50;0.30;;;;;;;22.03;100.00;99895.31;5041601;28;20585;-80
2021/06/18 04:27:44;;;;;;;0.80;0.70;;;;;;;22.05;100.00;99905.06;5055093;28;20502;-81
2021/06/18 04:30:13;;;;;;;1.00;1.00;;;;;;;22.20;100.00;99893.94;5053170;28;20444;-81
2021/06/18 04:32:41;;;;;;;0.50;0.30;;;;;;;22.66;100.00;99891.81;5047199;28;20448;-80
2021/06/18 04:35:09;;;;;;;1.47;0.57;;;;;;;23.45;100.00;99903.06;5030060;28;20464;-81
2021/06/18 04:37:37;;;;;;;0.50;0.20;;;;;;;23.59;99.96;99900.00;5022899;28;20491;-81
2021/06/18 04:40:06;;;;;;;2.60;0.90;;;;;;;23.90;97.88;99894.53;5047494;28;20491;-81
2021/06/18 04:42:33;;;;;;;0.50;0.40;;;;;;;24.25;96.82;99894.03;5045936;28;20486;-82
2021/06/18 04:45:00;;;;;;;1.23;0.80;;;;;;;24.55;94.70;99897.69;5044783;28;20448;-81
2021/06/18 04:47:26;;;;;;;1.73;1.17;;;;;;;24.55;93.89;99887.69;5043245;28;20487;-81
2021/06/18 04:49:53;;;;;;;0.60;0.53;;;;;;;24.37;94.23;99895.66;5025029;28;20479;-81
2021/06/18 04:52:20;;;;;;;2.30;1.07;;;;;;;24.66;93.61;99892.94;5032887;28;20792;-81
2021/06/18 04:54:53;;;;;;;0.70;0.60;;;;;;;24.69;92.53;99891.81;5045646;28;20451;-82
2021/06/18 04:57:20;;;;;;;0.50;0.30;;;;;;;24.99;92.28;99907.97;5045672;28;20483;-81
2021/06/18 04:59:46;;;;;;;1.27;0.50;;;;;;;24.89;93.09;99926.13;5045980;28;20498;-79
2021/06/18 05:02:13;;;;;;;0.67;0.47;;;;;;;24.86;92.62;99906.53;5036607;28;20459;-83
2021/06/18 05:04:40;;;;;;;0.90;0.90;;;;;;;25.54;89.96;99929.91;5045211;28;20444;-81
2021/06/18 05:07:06;;;;;;;1.07;0.60;;;;;;;26.06;88.47;99924.00;5043851;28;20486;-81
2021/06/18 05:09:33;;;;;;;2.87;2.63;;;;;;;26.10;87.85;99922.66;5041396;28;20867;-81
2021/06/18 05:12:00;;;;;;;1.57;1.10;;;;;;;25.64;89.78;99924.44;5036658;28;20462;-81
2021/06/18 05:14:27;;;;;;;0.50;0.30;;;;;;;25.98;89.31;99936.50;5046422;28;20478;-81
2021/06/18 05:16:54;;;;;;;0.57;0.43;;;;;;;26.00;87.96;99939.06;5027584;28;20519;-78
2021/06/18 05:19:21;;;;;;;2.20;2.10;;;;;;;25.94;87.81;99934.22;5038215;28;20442;-79
2021/06/18 05:21:48;;;;;;;0.70;0.50;;;;;;;26.26;86.24;99931.88;5045702;28;20516;-79
2021/06/18 05:24:14;;;;;;;0.77;0.77;;;;;;;26.70;85.33;99933.88;5040625;28;20430;-79
2021/06/18 05:26:41;;;;;;;0.97;0.87;;;;;;;26.42;85.46;99935.81;5039902;28;20472;-83
2021/06/18 05:29:08;;;;;;;0.50;0.40;;;;;;;26.84;83.31;99942.38;5038073;28;20483;-82
2021/06/18 05:31:34;;;;;;;1.03;0.57;;;;;;;26.55;84.72;99933.56;5030952;28;20430;-80
2021/06/18 05:34:01;;;;;;;0.60;0.60;;;;;;;26.79;84.29;99935.69;5001367;28;20450;-80
2021/06/18 05:36:28;;;;;;;0.50;0.30;;;;;;;27.12;82.71;99934.97;5029632;28;20476;-79
2021/06/18 05:38:55;;;;;;;0.60;0.50;;;;;;;27.07;82.86;99931.88;5035886;28;20459;-79
2021/06/18 05:41:21;;;;;;;0.50;0.30;;;;;;;27.22;82.53;99937.63;5011470;28;21108;-80
2021/06/18 05:43:48;;;;;;;1.80;1.70;;;;;;;27.03;83.66;99935.94;5033970;28;20458;-80
2021/06/18 05:46:15;;;;;;;0.60;0.50;;;;;;;27.44;82.42;99939.81;5022871;28;20503;-80
2021/06/18 05:48:41;;;;;;;0.50;0.40;;;;;;;27.50;81.94;99941.03;5036180;28;20487;-80
2021/06/18 05:51:08;;;;;;;1.43;0.67;;;;;;;27.32;81.16;99938.38;5035643;28;20426;-80
2021/06/18 05:53:35;;;;;;;1.47;1.37;;;;;;;27.79;80.10;99932.53;5035302;28;20476;-80
2021/06/18 05:56:02;;;;;;;0.70;0.60;;;;;;;26.99;81.88;99911.81;5034246;28;20475;-81
2021/06/18 05:58:29;;;;;;;0.50;0.40;;;;;;;27.15;81.20;99928.38;5034865;28;20439;-80
2021/06/18 06:00:55;;;;;;;3.23;1.67;;;;;;;27.40;79.16;99923.91;5029912;28;20478;-80
2021/06/18 06:03:22;;;;;;;0.87;0.87;;;;;;;27.97;77.98;99924.25;5009852;28;20424;-80
2021/06/18 06:05:49;;;;;;;1.40;1.30;;;;;;;28.04;78.48;99920.69;5033926;28;20456;-81
2021/06/18 06:08:16;;;;;;;0.50;0.30;;;;;;;28.23;76.89;99924.16;5040049;28;20427;-81
2021/06/18 06:10:50;;;;;;;1.80;1.70;;;;;;;27.68;78.04;99922.75;5026372;28;20483;-81
2021/06/18 06:13:19;;;;;;;0.90;0.90;;;;;;;27.92;76.41;99913.81;5025095;28;20501;-80
2021/06/18 06:15:47;;;;;;;1.47;1.40;;;;;;;27.49;78.47;99916.63;5033339;28;20487;-80
2021/06/18 06:18:15;;;;;;;0.87;0.87;;;;;;;28.09;75.48;99911.13;5015449;28;20454;-80
2021/06/18 06:20:42;;;;;;;1.13;1.03;;;;;;;28.56;72.41;99906.84;5037488;28;20855;-81
2021/06/18 06:23:10;;;;;;;0.60;0.40;;;;;;;28.75;73.71;99910.28;5027660;28;20457;-81
2021/06/18 06:25:38;;;;;;;0.50;0.40;;;;;;;29.07;73.66;99907.59;5033554;28;20461;-80
2021/06/18 06:28:05;;;;;;;0.50;0.30;;;;;;;28.96;73.51;99898.88;5037301;28;20504;-81
2021/06/18 06:30:33;;;;;;;1.47;1.23;;;;;;;29.50;70.53;99889.06;5036879;28;20514;-81
2021/06/18 06:33:00;;;;;;;0.50;0.40;;;;;;;29.35;70.30;99886.16;5038557;28;20936;-81
2021/06/18 06:35:27;;;;;;;0.50;0.40;;;;;;;28.81;69.57;99885.84;5028056;28;20463;-81
2021/06/18 06:37:54;;;;;;;0.50;0.30;;;;;;;29.39;69.10;99864.75;5037873;28;20522;-82
2021/06/18 06:40:23;;;;;;;0.60;0.40;;;;;;;29.54;70.02;99865.75;5037553;28;20518;-81
2021/06/18 06:42:51;;;;;;;0.53;0.40;;;;;;;29.38;71.27;99863.03;5037905;28;20930;-81
2021/06/18 06:45:18;;;;;;;0.60;0.50;;;;;;;29.98;69.13;99863.31;5037228;28;20523;-82
2021/06/18 06:47:50;;;;;;;0.80;0.70;;;;;;;30.20;67.08;99863.59;5040068;28;20479;-82
2021/06/18 06:50:18;;;;;;;0.50;0.40;;;;;;;30.00;66.68;99874.97;5036444;28;20455;-83
2021/06/18 06:52:44;;;;;;;0.50;0.40;;;;;;;29.91;66.49;99880.69;5036333;28;20452;-81
2021/06/18 06:55:12;;;;;;;0.63;0.50;;;;;;;30.02;65.81;99881.16;5035557;28;20439;-81
2021/06/18 06:57:40;;;;;;;1.23;1.23;;;;;;;30.02;65.07;99886.63;5037115;28;20475;-81
2021/06/18 07:00:08;;;;;;;0.70;0.70;;;;;;;29.93;65.14;99870.41;5036675;28;20456;-82
2021/06/18 07:02:35;;;;;;;1.90;1.27;;;;;;;30.56;62.87;99888.53;5037342;28;20467;-82
2021/06/18 07:05:03;;;;;;;0.50;0.30;;;;;;;30.41;63.28;99876.66;5023065;28;21013;-82
2021/06/18 07:07:30;;;;;;;0.60;0.50;;;;;;;30.46;62.49;99879.72;5023685;28;20450;-82
2021/06/18 07:09:57;;;;;;;1.83;0.90;;;;;;;30.63;60.62;99884.06;5038560;28;20496;-82
2021/06/18 07:12:23;;;;;;;0.50;0.33;;;;;;;30.49;60.18;99882.09;5038326;28;20452;-82
2021/06/18 07:14:50;;;;;;;0.67;0.67;;;;;;;30.31;60.21;99879.66;5009854;28;20431;-82
2021/06/18 07:17:17;;;;;;;0.50;0.30;;;;;;;30.46;59.93;99876.97;5022706;28;20534;-83
2021/06/18 07:19:44;;;;;;;0.70;0.70;;;;;;;30.47;59.22;99871.31;5011360;28;20483;-82
2021/06/18 07:22:11;;;;;;;0.50;0.30;;;;;;;30.72;58.04;99883.00;5036725;28;20474;-82
2021/06/18 07:24:38;;;;;;;3.13;0.70;;;;;;;30.89;58.11;99870.81;5039736;28;20422;-82
2021/06/18 07:27:05;;;;;;;2.93;0.90;;;;;;;30.54;59.16;99882.38;5039112;28;20481;-83
2021/06/18 07:29:31;;;;;;;0.50;0.47;;;;;;;30.85;58.95;99874.13;5035030;28;20492;-82
2021/06/18 07:31:58;;;;;;;0.97;0.97;;;;;;;30.75;58.24;99882.63;5032880;28;20488;-84
2021/06/18 07:34:25;;;;;;;0.50;0.30;;;;;;;31.03;58.35;99882.88;5029917;28;20464;-82
2021/06/18 07:36:52;;;;;;;0.50;0.30;;;;;;;31.10;57.32;99872.84;5026356;28;20463;-82
2021/06/18 07:39:18;;;;;;;2.10;0.87;;;;;;;31.08;57.80;99876.81;5039534;28;20455;-83
2021/06/18 07:41:46;;;;;;;0.93;0.93;;;;;;;30.76;58.72;99865.09;5011838;28;20465;-83
2021/06/18 07:44:13;;;;;;;0.63;0.50;;;;;;;31.09;57.38;99878.53;5032570;28;20422;-82
2021/06/18 07:46:41;;;;;;;0.50;0.40;;;;;;;31.24;57.02;99865.69;5034126;28;20512;-84
2021/06/18 07:49:08;;;;;;;2.20;2.10;;;;;;;30.71;58.44;99874.94;5023565;28;20787;-82
2021/06/18 07:51:39;;;;;;;0.60;0.50;;;;;;;31.05;55.93;99875.31;5007400;28;20441;-82
2021/06/18 07:54:06;;;;;;;1.03;0.67;;;;;;;31.35;54.53;99876.22;5015344;28;20447;-82
2021/06/18 07:56:36;;;;;;;1.07;0.47;;;;;;;30.89;54.39;99862.59;5041521;28;20502;-83
2021/06/18 07:59:03;;;;;;;0.50;0.30;;;;;;;31.41;54.24;99859.00;5039994;28;20425;-83
2021/06/18 08:01:30;;;;;;;0.50;0.30;;;;;;;31.21;57.49;99855.09;5036079;28;20487;-83
2021/06/18 08:04:01;;;;;;;0.57;0.53;;;;;;;31.50;58.43;99876.25;5041397;28;20478;-84
2021/06/18 08:06:27;;;;;;;0.50;0.30;;;;;;;31.63;55.59;99879.19;5024240;28;20446;-84
2021/06/18 08:08:54;;;;;;;0.70;0.70;;;;;;;31.43;54.39;99881.66;5042751;28;20447;-83
2021/06/18 08:11:21;;;;;;;0.50;0.50;;;;;;;31.80;54.10;99890.88;5029331;28;20466;-83
2021/06/18 08:13:47;;;;;;;0.50;0.30;;;;;;;31.67;54.15;99882.41;5041823;28;20439;-83
2021/06/18 08:16:14;;;;;;;1.03;1.03;;;;;;;31.58;53.78;99878.91;5042841;28;20446;-84
2021/06/18 08:18:41;;;;;;;0.60;0.50;;;;;;;31.68;56.07;99878.63;5042475;28;20454;-83
2021/06/18 08:21:09;;;;;;;0.63;0.63;;;;;;;31.12;54.97;99868.03;5042001;28;20880;-83
2021/06/18 08:23:37;;;;;;;0.83;0.83;;;;;;;31.51;55.14;99881.53;5020019;28;20432;-83
2021/06/18 08:26:04;;;;;;;0.60;0.40;;;;;;;31.82;54.59;99877.78;5037846;28;20471;-83
2021/06/18 08:28:32;;;;;;;0.50;0.30;;;;;;;31.67;56.08;99882.41;5042281;28;20430;-83
2021/06/18 08:31:00;;;;;;;0.53;0.37;;;;;;;31.79;55.86;99886.41;5022321;28;20420;-80
2021/06/18 08:33:27;;;;;;;0.50;0.30;;;;;;;31.91;54.19;99881.28;5013978;28;20437;-81
2021/06/18 08:35:54;;;;;;;2.10;0.50;;;;;;;31.83;54.30;99882.25;5038875;23;20459;-52
2021/06/18 08:38:20;;;;;;;4.10;2.00;;;;;;;32.03;53.13;99888.84;5019323;28;20458;-53
2021/06/18 08:40:47;;;;;;;2.50;0.50;;;;;;;32.04;53.01;99893.28;5028809;28;20527;-52
2021/06/18 08:43:14;;;;;;;0.50;0.30;;;;;;;31.89;53.74;99875.97;5029725;28;20422;-54
2021/06/18 08:45:41;;;;;;;1.90;1.33;;;;;;;31.83;53.87;99896.84;5023345;28;20904;-53
2021/06/18 08:48:08;;;;;;;0.60;0.50;;;;;;;31.94;53.93;99887.25;5009853;28;20497;-53
2021/06/18 08:50:35;;;;;;;0.50;0.30;;;;;;;31.99;54.00;99892.19;4995981;28;20464;-52
2021/06/18 08:53:02;;;;;;;0.87;0.80;;;;;;;31.98;54.38;99890.47;4993482;28;20440;-53
2021/06/18 08:55:31;;;;;;;0.50;0.30;;;;;;;31.93;52.99;99888.28;5013100;28;20499;-53
2021/06/18 08:58:00;;;;;;;0.57;0.57;;;;;;;32.17;53.41;99889.84;5005446;28;20433;-53
2021/06/18 09:00:28;;;;;;;1.10;0.60;;;;;;;31.92;54.84;99888.47;5012886;28;20991;-52
2021/06/18 09:02:56;;;;;;;0.93;0.93;;;;;;;31.63;54.76;99881.06;5014920;28;20527;-52
2021/06/18 09:05:23;;;;;;;0.80;0.80;;;;;;;31.89;55.79;99884.22;5010354;28;20531;-52
2021/06/18 09:07:53;;;;;;;0.57;0.40;;;;;;;31.80;55.60;99882.63;5012800;28;20419;-52
2021/06/18 09:10:35;;;;;;;0.50;0.30;;;;;;;31.92;54.91;99880.22;4986019;28;20508;-52
2021/06/18 09:13:09;;;;;;;0.67;0.60;;;;;;;31.60;55.46;99882.31;4999546;28;20444;-52
2021/06/18 09:15:38;;;;;;;0.50;0.30;;;;;;;31.70;55.52;99874.63;5014676;28;20446;-52
2021/06/18 09:18:26;;;;;;;0.50;0.30;;;;;;;31.89;55.55;99886.13;4989270;28;20439;-52
2021/06/18 09:21:12;;;;;;;1.43;1.33;;;;;;;31.87;57.19;99878.06;4985696;28;20493;-53
2021/06/18 09:23:41;;;;;;;0.50;0.40;;;;;;;31.96;55.47;99881.56;4984124;28;20420;-53
2021/06/18 09:26:20;;;;;;;1.27;1.17;;;;;;;32.06;55.44;99882.94;4989011;28;20473;-52
2021/06/18 09:29:03;;;;;;;0.50;0.30;;;;;;;32.19;54.50;99879.50;4999830;28;20456;-53
2021/06/18 09:31:35;;;;;;;0.50;0.40;;;;;;;32.33;54.53;99881.41;5011226;28;20426;-53
2021/06/18 09:34:04;;;;;;;1.10;0.70;;;;;;;32.26;53.83;99876.84;5009865;28;20452;-53
2021/06/18 09:36:31;;;;;;;0.50;0.30;;;;;;;32.55;53.77;99868.53;5001685;28;20512;-53
2021/06/18 09:38:59;;;;;;;3.20;1.50;;;;;;;32.31;52.90;99875.25;5010836;28;21009;-53
2021/06/18 09:41:33;;;;;;;0.50;0.40;;;;;;;32.30;53.37;99869.94;5010909;28;20517;-53
2021/06/18 09:44:08;;;;;;;1.50;0.63;;;;;;;32.40;53.12;99878.72;5010768;28;20881;-53
2021/06/18 09:46:52;;;;;;;0.50;0.40;;;;;;;32.65;53.22;99881.97;5011072;28;21195;-54
2021/06/18 09:49:30;;;;;;;0.50;0.30;;;;;;;32.98;53.85;99887.78;5010916;28;20484;-54
2021/06/18 09:52:02;;;;;;;0.90;0.60;;;;;;;32.80;52.06;99884.66;5010678;28;20526;-54
2021/06/18 09:54:32;;;;;;;0.50;0.37;;;;;;;32.78;52.90;99884.00;5010653;28;20431;-54
2021/06/18 09:57:03;;;;;;;0.63;0.57;;;;;;;33.16;52.99;99873.53;5010215;28;20850;-54
2021/06/18 09:59:30;;;;;;;1.73;1.63;;;;;;;32.79;53.21;99875.53;5010587;28;20463;-54
2021/06/18 10:01:56;;;;;;;0.40;0.30;;;;;;;33.01;53.15;99870.88;5010317;28;20906;-53
2021/06/18 10:04:25;;;;;;;2.30;2.20;;;;;;;32.15;53.39;99874.59;5006734;28;20868;-53
2021/06/18 10:06:51;;;;;;;0.50;0.40;;;;;;;32.26;53.13;99871.34;5010089;28;20472;-53
2021/06/18 10:09:18;;;;;;;0.50;0.47;;;;;;;32.33;53.23;99886.03;5009735;28;20461;-53
2021/06/18 10:11:45;;;;;;;0.53;0.40;;;;;;;32.86;52.98;99873.72;4998507;28;20456;-53
2021/06/18 10:14:14;;;;;;;0.60;0.43;;;;;;;33.07;52.74;99883.00;5010167;28;20899;-54
2021/06/18 10:16:42;;;;;;;2.63;0.97;;;;;;;32.85;52.47;99874.75;5008129;28;20492;-54
2021/06/18 10:19:08;;;;;;;0.90;0.57;;;;;;;32.79;53.62;99888.44;5010146;28;20489;-54
2021/06/18 10:21:50;;;;;;;3.43;0.70;;;;;;;33.14;53.00;99883.91;5009937;28;20484;-53
2021/06/18 10:24:20;;;;;;;1.20;0.57;;;;;;;32.78;53.81;99881.25;5010329;28;20506;-54
2021/06/18 10:26:50;;;;;;;0.50;0.30;;;;;;;32.98;54.71;99888.66;5009967;28;20447;-54
2021/06/18 10:29:36;;;;;;;0.50;0.30;;;;;;;33.30;52.88;99887.19;5009582;28;20461;-54
2021/06/18 10:32:41;;;;;;;0.80;0.80;;;;;;;33.39;51.83;99889.84;5009650;28;20499;-54
2021/06/18 10:35:08;;;;;;;2.10;1.03;;;;;;;32.99;53.66;99897.75;5000485;28;20427;-53
2021/06/18 10:37:45;;;;;;;0.70;0.70;;;;;;;32.92;53.41;99894.13;5010111;28;20464;-54
2021/06/18 10:40:13;;;;;;;1.93;0.97;;;;;;;33.16;52.48;99890.91;5010246;28;20431;-53
2021/06/18 10:43:09;;;;;;;0.80;0.80;;;;;;;32.95;51.08;99894.56;5010453;28;21022;-54
2021/06/18 10:45:57;;;;;;;0.50;0.40;;;;;;;32.66;52.92;99890.03;5011106;28;20480;-53
2021/06/18 10:48:47;;;;;;;0.73;0.73;;;;;;;33.15;54.63;99894.72;5008911;28;20469;-53
2021/06/18 10:51:25;;;;;;;0.60;0.50;;;;;;;33.00;56.12;99885.69;4997262;28;20419;-53
2021/06/18 10:54:07;;;;;;;0.50;0.30;;;;;;;33.07;56.46;99872.84;5013085;28;20448;-53
2021/06/18 10:56:49;;;;;;;0.40;0.30;;;;;;;33.25;55.45;99888.88;5012514;28;20900;-53
2021/06/18 10:59:53;;;;;;;0.60;0.50;;;;;;;33.57;56.17;99888.25;4985974;28;21369;-53
2021/06/18 11:04:53;;;;;;;0.80;0.80;;;;;;;33.25;53.57;99884.19;4973718;28;20484;-53
2021/06/18 11:07:27;;;;;;;0.60;0.60;;;;;;;33.08;56.20;99884.72;4986823;28;20437;-53
2021/06/18 11:09:55;;;;;;;0.93;0.93;;;;;;;33.49;56.09;99891.19;5002243;28;20449;-54
2021/06/18 11:12:22;;;;;;;1.60;1.60;;;;;;;32.88;55.90;99887.28;5002145;28;20923;-53
2021/06/18 11:14:55;;;;;;;0.50;0.40;;;;;;;33.45;55.52;99880.78;5009146;28;20914;-53
2021/06/18 11:17:40;;;;;;;0.60;0.53;;;;;;;33.86;54.76;99870.66;4997452;28;20523;-53
2021/06/18 11:20:18;;;;;;;0.50;0.40;;;;;;;33.98;52.33;99872.81;5009225;28;20472;-53
2021/06/18 11:22:50;;;;;;;0.50;0.50;;;;;;;33.96;53.05;99873.00;5009048;28;20523;-54
2021/06/18 11:25:37;;;;;;;0.50;0.40;;;;;;;34.69;51.51;99878.78;5009268;28;20530;-53
2021/06/18 11:28:19;;;;;;;0.70;0.50;;;;;;;34.55;49.92;99886.19;4990378;28;20489;-53
2021/06/18 11:30:55;;;;;;;3.60;1.33;;;;;;;34.45;49.48;99883.84;5006157;28;20456;-54
2021/06/18 11:33:56;;;;;;;0.50;0.40;;;;;;;34.62;50.02;99883.44;5009461;28;20427;-53
2021/06/18 11:36:24;;;;;;;0.40;0.30;;;;;;;34.54;49.05;99889.16;4981392;28;20496;-53
2021/06/18 11:38:58;;;;;;;0.50;0.40;;;;;;;34.16;49.22;99881.38;4999133;28;20445;-53
2021/06/18 11:41:30;;;;;;;1.43;1.43;;;;;;;34.56;48.43;99876.00;5008337;28;20945;-53
2021/06/18 11:44:00;;;;;;;0.70;0.70;;;;;;;34.40;48.64;99883.63;5008670;28;20883;-53
2021/06/18 11:46:30;;;;;;;0.70;0.57;;;;;;;34.58;47.87;99873.88;5008943;28;20869;-53